Time;durP1;ratioP1;P1;durP2;ratioP2;P2;SDS_P1;SDS_P2;PMS_P1;PMS_P2;Temp;Humidity;BMP_temperature;BMP_pressure;BME280_temperature;BME280_humidity;BME280_pressure;Samples;Min_cycle;Max_cycle;Signal;HPM_P1;HPM_P2
2022/05/10 00:02:31;;;;;;;13.05;12.10;;;;;;;-141.48;100.00;69781.59;5158034;28;20575;-80
2022/05/10 00:05:03;;;;;;;19.30;13.25;;;;;;;-141.48;100.00;69781.59;5183182;28;20029;-80
2022/05/10 00:07:35;;;;;;;27.90;15.32;;;;;;;-141.48;100.00;69781.59;5182612;28;20018;-81
2022/05/10 00:10:09;;;;;;;15.73;14.52;;;;;;;-141.48;100.00;69781.59;5174926;28;20030;-80
2022/05/10 00:12:39;;;;;;;15.80;14.48;;;;;;;-141.48;100.00;69781.59;5175171;28;20026;-80
2022/05/10 00:15:10;;;;;;;14.20;13.30;;;;;;;-141.48;100.00;69781.59;5174129;28;20030;-80
2022/05/10 00:17:42;;;;;;;14.82;13.43;;;;;;;-141.48;100.00;69781.59;5157880;28;20019;-81
2022/05/10 00:20:17;;;;;;;14.95;13.55;;;;;;;-141.48;100.00;69781.59;5174340;28;20033;-81
2022/05/10 00:22:48;;;;;;;16.45;15.32;;;;;;;-141.48;100.00;69781.59;5175105;28;20034;-81
2022/05/10 00:25:22;;;;;;;17.35;14.30;;;;;;;-141.48;100.00;69781.59;5157112;28;20405;-81
2022/05/10 00:27:54;;;;;;;17.38;16.13;;;;;;;-141.48;100.00;69781.59;5174172;28;20128;-81
2022/05/10 00:30:25;;;;;;;15.43;14.43;;;;;;;-141.48;100.00;69781.59;5172776;28;20061;-81
2022/05/10 00:32:55;;;;;;;13.93;12.88;;;;;;;-141.48;100.00;69781.59;5157604;28;20109;-81
2022/05/10 00:35:29;;;;;;;15.32;14.13;;;;;;;-141.48;100.00;69781.59;5156177;28;20500;-81
2022/05/10 00:38:02;;;;;;;13.88;12.88;;;;;;;-141.48;100.00;69781.59;5174446;28;20086;-82
2022/05/10 00:40:35;;;;;;;15.95;14.32;;;;;;;-141.48;100.00;69781.59;5174453;28;20034;-80
2022/05/10 00:43:11;;;;;;;15.60;13.95;;;;;;;-141.48;100.00;69781.59;5156028;28;20488;-80
2022/05/10 00:46:00;;;;;;;17.05;14.68;;;;;;;-141.48;100.00;69781.59;5156401;28;20424;-81
2022/05/10 00:49:14;;;;;;;15.52;14.25;;;;;;;-141.48;100.00;69781.59;5156893;28;20022;-82
2022/05/10 00:52:03;;;;;;;16.25;14.90;;;;;;;-141.48;100.00;69781.59;5112110;29;20435;-82
2022/05/10 00:54:42;;;;;;;21.80;14.52;;;;;;;-141.48;100.00;69781.59;5111302;29;20027;-81
2022/05/10 00:57:24;;;;;;;16.20;15.17;;;;;;;-141.48;100.00;69781.59;5158649;28;20034;-81
2022/05/10 01:00:15;;;;;;;15.35;12.63;;;;;;;-141.48;100.00;69781.59;5174423;28;20057;-82
2022/05/10 01:03:05;;;;;;;16.58;14.88;;;;;;;-141.48;100.00;69781.59;5172868;28;20027;-81
2022/05/10 01:05:40;;;;;;;16.20;14.80;;;;;;;-141.48;100.00;69781.59;5173868;28;20028;-81
2022/05/10 01:08:52;;;;;;;16.40;15.15;;;;;;;-141.48;100.00;69781.59;5155997;28;20034;-82
2022/05/10 01:11:29;;;;;;;16.58;15.18;;;;;;;-141.48;100.00;69781.59;5139104;28;20061;-81
2022/05/10 01:14:16;;;;;;;16.38;15.07;;;;;;;-141.48;100.00;69781.59;5172593;28;20041;-82
2022/05/10 01:16:46;;;;;;;22.77;16.55;;;;;;;-141.48;100.00;69781.59;5173166;28;20030;-82
2022/05/10 01:19:17;;;;;;;16.48;14.63;;;;;;;-141.48;100.00;69781.59;5173476;28;20522;-82
2022/05/10 01:22:12;;;;;;;16.88;15.63;;;;;;;-141.48;100.00;69781.59;5156067;28;20057;-82
2022/05/10 01:25:17;;;;;;;15.63;14.52;;;;;;;-141.48;100.00;69781.59;5155646;28;20551;-83
2022/05/10 01:27:47;;;;;;;17.40;16.05;;;;;;;-141.48;100.00;69781.59;5173586;28;20030;-81
2022/05/10 01:30:23;;;;;;;17.55;16.05;;;;;;;-141.48;100.00;69781.59;5156070;28;20035;-80
2022/05/10 01:35:59;;;;;;;16.80;15.63;;;;;;;-141.48;100.00;69781.59;5172985;28;20072;-80
2022/05/10 01:38:54;;;;;;;17.13;15.57;;;;;;;-141.48;100.00;69781.59;5155542;28;20026;-81
2022/05/10 01:41:49;;;;;;;18.73;17.33;;;;;;;-141.48;100.00;69781.59;5172119;28;20026;-81
2022/05/10 01:44:42;;;;;;;17.13;15.88;;;;;;;-141.48;100.00;69781.59;5172931;28;20027;-81
2022/05/10 01:47:20;;;;;;;16.77;15.35;;;;;;;-141.48;100.00;69781.59;5172797;28;20034;-81
2022/05/10 01:49:54;;;;;;;20.50;16.52;;;;;;;-141.48;100.00;69781.59;5155636;28;20029;-81
2022/05/10 01:52:40;;;;;;;19.25;17.48;;;;;;;-141.48;100.00;69781.59;5172684;28;20040;-82
2022/05/10 01:55:27;;;;;;;19.95;18.27;;;;;;;-141.48;100.00;69781.59;5155341;28;20090;-81
2022/05/10 01:58:09;;;;;;;17.75;15.90;;;;;;;-141.48;100.00;69781.59;5172827;28;20465;-81
2022/05/10 02:00:55;;;;;;;19.70;17.95;;;;;;;-141.48;100.00;69781.59;5155022;28;20117;-81
2022/05/10 02:04:04;;;;;;;18.27;16.88;;;;;;;-141.48;100.00;69781.59;5155030;28;20401;-82
2022/05/10 02:06:43;;;;;;;19.95;18.42;;;;;;;-141.48;100.00;69781.59;5153113;28;20066;-81
2022/05/10 02:09:28;;;;;;;20.63;19.03;;;;;;;-141.48;100.00;69781.59;5172850;28;20018;-82
2022/05/10 02:12:11;;;;;;;20.27;18.58;;;;;;;-141.48;100.00;69781.59;5172502;28;20041;-81
2022/05/10 02:14:50;;;;;;;18.52;17.00;;;;;;;-141.48;100.00;69781.59;5172927;28;20026;-82
2022/05/10 02:17:37;;;;;;;16.67;15.13;;;;;;;-141.48;100.00;69781.59;5157255;28;20042;-82
2022/05/10 02:20:21;;;;;;;18.73;17.13;;;;;;;-141.48;100.00;69781.59;5181993;28;20026;-81
2022/05/10 02:23:02;;;;;;;19.23;17.52;;;;;;;-141.48;100.00;69781.59;5186280;28;20034;-81
2022/05/10 02:25:44;;;;;;;19.90;18.10;;;;;;;-141.48;100.00;69781.59;5156343;28;20064;-82
2022/05/10 02:28:36;;;;;;;20.35;18.08;;;;;;;-141.48;100.00;69781.59;5176758;28;20499;-82
2022/05/10 02:33:06;;;;;;;20.67;18.13;;;;;;;-141.48;100.00;69781.59;5157749;28;20022;-81
2022/05/10 02:34:33;;;;;;;18.98;17.60;;;;;;;-141.48;100.00;69781.59;5176922;28;20117;-82
2022/05/10 02:37:04;;;;;;;21.67;17.77;;;;;;;-141.48;100.00;69781.59;5176476;28;20497;-81
2022/05/10 02:39:35;;;;;;;24.90;18.25;;;;;;;-141.48;100.00;69781.59;5176470;28;20037;-81
2022/05/10 02:42:09;;;;;;;18.60;16.98;;;;;;;-141.48;100.00;69781.59;5158685;28;20400;-81
2022/05/10 02:44:40;;;;;;;18.92;17.38;;;;;;;-141.48;100.00;69781.59;5176107;28;20029;-82
2022/05/10 02:47:11;;;;;;;19.73;17.88;;;;;;;-141.48;100.00;69781.59;5176468;28;20030;-81
2022/05/10 02:49:41;;;;;;;20.55;18.48;;;;;;;-141.48;100.00;69781.59;5176179;28;20033;-81
2022/05/10 02:52:12;;;;;;;19.25;17.85;;;;;;;-141.48;100.00;69781.59;5175890;28;20022;-81
2022/05/10 02:54:42;;;;;;;18.95;17.42;;;;;;;-141.48;100.00;69781.59;5176262;28;20065;-81
2022/05/10 02:57:12;;;;;;;20.63;18.65;;;;;;;-141.48;100.00;69781.59;5176483;28;20030;-82
2022/05/10 02:59:43;;;;;;;18.13;16.88;;;;;;;-141.48;100.00;69781.59;5175035;28;20030;-81
2022/05/10 03:02:26;;;;;;;18.65;17.08;;;;;;;-141.48;100.00;69781.59;5174910;28;20393;-81
2022/05/10 03:04:58;;;;;;;18.27;16.83;;;;;;;-141.48;100.00;69781.59;5158170;28;20078;-81
2022/05/10 03:07:29;;;;;;;20.52;18.63;;;;;;;-141.48;100.00;69781.59;5176447;28;20057;-81
2022/05/10 03:09:59;;;;;;;19.08;17.42;;;;;;;-141.48;100.00;69781.59;5158026;28;20033;-83
2022/05/10 03:12:30;;;;;;;21.05;19.17;;;;;;;-141.48;100.00;69781.59;5174588;28;20423;-81
2022/05/10 03:15:00;;;;;;;19.05;16.52;;;;;;;-141.48;100.00;69781.59;5176219;28;20054;-81
2022/05/10 03:17:31;;;;;;;19.33;17.23;;;;;;;-141.48;100.00;69781.59;5157660;28;20018;-83
2022/05/10 03:20:03;;;;;;;18.55;16.73;;;;;;;-141.48;100.00;69781.59;5175696;28;20072;-83
2022/05/10 03:22:34;;;;;;;19.70;17.60;;;;;;;-141.48;100.00;69781.59;5175041;28;20022;-82
2022/05/10 03:25:05;;;;;;;18.90;17.10;;;;;;;-141.48;100.00;69781.59;5175318;28;20361;-82
2022/05/10 03:27:37;;;;;;;19.85;18.15;;;;;;;-141.48;100.00;69781.59;5174659;28;20128;-83
2022/05/10 03:30:08;;;;;;;20.48;18.67;;;;;;;-141.48;100.00;69781.59;5175602;28;20546;-82
2022/05/10 03:32:39;;;;;;;19.70;17.85;;;;;;;-141.48;100.00;69781.59;5175405;28;20022;-82
2022/05/10 03:35:11;;;;;;;22.08;20.02;;;;;;;-141.48;100.00;69781.59;5175088;28;20037;-82
2022/05/10 03:37:41;;;;;;;18.23;16.63;;;;;;;-141.48;100.00;69781.59;5189040;23;20410;-56
2022/05/10 03:40:12;;;;;;;20.38;18.55;;;;;;;-141.48;100.00;69781.59;5132499;28;20033;-55
2022/05/10 03:42:48;;;;;;;20.02;18.27;;;;;;;-141.48;100.00;69781.59;5166598;28;20025;-55
2022/05/10 03:45:21;;;;;;;18.73;17.10;;;;;;;-141.48;100.00;69781.59;5165078;28;20121;-56
2022/05/10 03:47:52;;;;;;;20.60;18.42;;;;;;;-141.48;100.00;69781.59;5164591;28;20371;-54
2022/05/10 03:50:24;;;;;;;20.27;18.40;;;;;;;-141.48;100.00;69781.59;5165381;28;20120;-56
2022/05/10 03:52:54;;;;;;;22.27;17.05;;;;;;;-141.48;100.00;69781.59;5149033;28;20394;-58
2022/05/10 03:55:27;;;;;;;19.58;17.88;;;;;;;-141.48;100.00;69781.59;5148954;28;20022;-55
2022/05/10 03:57:58;;;;;;;22.02;20.05;;;;;;;-141.48;100.00;69781.59;5165573;28;20030;-54
2022/05/10 04:03:30;;;;;;;16.17;15.02;;;;;;;-141.48;100.00;69781.59;5268488;23;20109;-53
2022/05/10 04:06:56;;;;;;;19.02;17.17;;;;;;;-141.48;100.00;69781.59;5148926;28;20585;-58
2022/05/10 04:09:52;;;;;;;29.25;20.90;;;;;;;-141.48;100.00;69781.59;5149009;28;20154;-57
2022/05/10 04:12:22;;;;;;;21.67;19.90;;;;;;;-141.48;100.00;69781.59;5164657;28;20109;-53
2022/05/10 04:14:53;;;;;;;21.55;17.67;;;;;;;-141.48;100.00;69781.59;5165337;28;20526;-54
2022/05/10 04:17:24;;;;;;;17.77;16.00;;;;;;;-141.48;100.00;69781.59;5166150;28;20026;-56
2022/05/10 04:19:54;;;;;;;22.85;20.63;;;;;;;-141.48;100.00;69781.59;5164548;28;20058;-57
2022/05/10 04:22:24;;;;;;;19.75;17.77;;;;;;;-141.48;100.00;69781.59;5148634;28;20525;-55
2022/05/10 04:24:55;;;;;;;19.17;16.30;;;;;;;-141.48;100.00;69781.59;5148451;28;20206;-54
2022/05/10 04:27:29;;;;;;;21.45;18.48;;;;;;;-141.48;100.00;69781.59;5165614;28;20383;-54
2022/05/10 04:29:59;;;;;;;26.23;16.65;;;;;;;-141.48;100.00;69781.59;5147599;28;20358;-53
2022/05/10 04:32:38;;;;;;;17.60;16.27;;;;;;;-141.48;100.00;69781.59;5148476;28;20103;-53
2022/05/10 04:35:09;;;;;;;18.90;17.05;;;;;;;-141.48;100.00;69781.59;5147473;28;20319;-53
2022/05/10 04:37:40;;;;;;;18.75;17.00;;;;;;;-141.48;100.00;69781.59;5165357;28;20033;-56
2022/05/10 04:43:00;;;;;;;17.90;16.15;;;;;;;-141.48;100.00;69781.59;5165169;28;20037;-57
2022/05/10 04:45:30;;;;;;;18.73;16.92;;;;;;;-141.48;100.00;69781.59;5146122;28;20461;-52
2022/05/10 04:48:01;;;;;;;15.90;14.40;;;;;;;-141.48;100.00;69781.59;5147037;28;20528;-52
2022/05/10 04:50:32;;;;;;;14.82;13.52;;;;;;;-141.48;100.00;69781.59;5147543;28;20096;-57
2022/05/10 04:53:02;;;;;;;16.67;15.15;;;;;;;-141.48;100.00;69781.59;5147795;28;20157;-55
2022/05/10 04:55:33;;;;;;;14.93;13.63;;;;;;;-141.48;100.00;69781.59;5148014;28;20501;-55
2022/05/10 04:58:03;;;;;;;15.20;13.93;;;;;;;-141.48;100.00;69781.59;5147942;28;20030;-55
2022/05/10 05:00:34;;;;;;;20.20;14.68;;;;;;;-141.48;100.00;69781.59;5148227;28;20034;-59
2022/05/10 05:03:04;;;;;;;14.63;13.52;;;;;;;-141.48;100.00;69781.59;5147823;28;20030;-55
2022/05/10 05:05:35;;;;;;;13.88;12.65;;;;;;;-141.48;100.00;69781.59;5147988;28;20037;-54
2022/05/10 05:08:05;;;;;;;15.32;13.95;;;;;;;-141.48;100.00;69781.59;5147884;28;20490;-54
2022/05/10 05:10:36;;;;;;;21.85;14.30;;;;;;;-141.48;100.00;69781.59;5164454;28;20085;-54
2022/05/10 05:13:06;;;;;;;12.40;11.32;;;;;;;-141.48;100.00;69781.59;5148510;28;20022;-53
2022/05/10 05:15:37;;;;;;;12.85;11.82;;;;;;;-141.48;100.00;69781.59;5165407;28;20026;-54
2022/05/10 05:18:09;;;;;;;16.27;15.05;;;;;;;-141.48;100.00;69781.59;5147420;28;20034;-55
2022/05/10 05:20:41;;;;;;;14.25;12.48;;;;;;;-141.48;100.00;69781.59;5163735;28;20426;-55
2022/05/10 05:23:12;;;;;;;14.23;13.18;;;;;;;-141.48;100.00;69781.59;5148189;28;20038;-55
2022/05/10 05:25:42;;;;;;;16.70;15.20;;;;;;;-141.48;100.00;69781.59;5146815;28;20108;-55
2022/05/10 05:28:13;;;;;;;12.95;11.85;;;;;;;-141.48;100.00;69781.59;5147629;28;20065;-54
2022/05/10 05:30:44;;;;;;;13.45;12.07;;;;;;;-141.48;100.00;69781.59;5147748;28;20125;-58
2022/05/10 05:33:15;;;;;;;13.20;11.93;;;;;;;-141.48;100.00;69781.59;5147814;28;20044;-56
2022/05/10 05:35:46;;;;;;;15.18;13.82;;;;;;;-141.48;100.00;69781.59;5147915;28;20022;-55
2022/05/10 05:38:16;;;;;;;11.95;11.10;;;;;;;-141.48;100.00;69781.59;5147952;28;20058;-56
2022/05/10 05:40:47;;;;;;;13.60;12.27;;;;;;;-141.48;100.00;69781.59;5149127;28;21231;-57
2022/05/10 05:43:19;;;;;;;12.65;11.75;;;;;;;-141.48;100.00;69781.59;5163782;28;20026;-57
2022/05/10 05:45:51;;;;;;;12.23;11.15;;;;;;;-141.48;100.00;69781.59;5183519;28;20036;-59
2022/05/10 05:48:21;;;;;;;12.00;11.05;;;;;;;-141.48;100.00;69781.59;5147226;28;20033;-62
2022/05/10 05:50:52;;;;;;;11.57;10.77;;;;;;;-141.48;100.00;69781.59;5148044;28;20426;-56
2022/05/10 05:53:22;;;;;;;12.15;11.05;;;;;;;-141.48;100.00;69781.59;5147574;28;20386;-59
2022/05/10 05:55:58;;;;;;;12.07;10.93;;;;;;;-141.48;100.00;69781.59;5163728;28;20535;-61
2022/05/10 05:58:29;;;;;;;9.45;8.68;;;;;;;-141.48;100.00;69781.59;5147573;28;20121;-59
2022/05/10 06:01:00;;;;;;;11.32;10.60;;;;;;;-141.48;100.00;69781.59;5146936;28;20553;-57
2022/05/10 06:03:30;;;;;;;11.30;10.50;;;;;;;-141.48;100.00;69781.59;5147064;28;20042;-56
2022/05/10 06:06:01;;;;;;;10.00;9.32;;;;;;;-141.48;100.00;69781.59;5147466;28;20033;-55
2022/05/10 06:08:31;;;;;;;9.85;9.05;;;;;;;-141.48;100.00;69781.59;5162074;28;20508;-55
2022/05/10 06:11:01;;;;;;;11.32;10.55;;;;;;;-141.48;100.00;69781.59;5167548;28;20022;-54
2022/05/10 06:13:35;;;;;;;9.48;8.77;;;;;;;-141.48;100.00;69781.59;5167154;28;20018;-56
2022/05/10 06:16:08;;;;;;;13.50;10.95;;;;;;;-141.48;100.00;69781.59;5168207;28;20092;-56
2022/05/10 06:18:38;;;;;;;11.65;10.65;;;;;;;-141.48;100.00;69781.59;5147186;28;20081;-58
2022/05/10 06:21:09;;;;;;;17.23;9.45;;;;;;;-141.48;100.00;69781.59;5162662;28;20026;-57
2022/05/10 06:23:39;;;;;;;11.65;9.63;;;;;;;-141.48;100.00;69781.59;5147252;28;20355;-57
2022/05/10 06:26:10;;;;;;;10.57;8.95;;;;;;;-141.48;100.00;69781.59;5148043;28;20514;-57
2022/05/10 06:28:41;;;;;;;9.35;8.75;;;;;;;-141.48;100.00;69781.59;5148308;28;20126;-56
2022/05/10 06:31:11;;;;;;;12.98;11.07;;;;;;;-141.48;100.00;69781.59;5148700;28;20034;-56
2022/05/10 06:33:42;;;;;;;9.57;8.75;;;;;;;-141.48;100.00;69781.59;5148597;28;20029;-59
2022/05/10 06:36:12;;;;;;;7.85;7.35;;;;;;;-141.48;100.00;69781.59;5166209;28;20565;-55
2022/05/10 06:38:43;;;;;;;8.82;8.23;;;;;;;-141.48;100.00;69781.59;5149394;28;20054;-57
2022/05/10 06:41:13;;;;;;;8.13;7.47;;;;;;;-141.48;100.00;69781.59;5151920;28;20026;-57
2022/05/10 06:43:44;;;;;;;8.18;7.60;;;;;;;-141.48;100.00;69781.59;5151556;28;20022;-57
2022/05/10 06:46:19;;;;;;;9.15;8.35;;;;;;;-141.48;100.00;69781.59;5151781;28;20120;-54
2022/05/10 06:48:50;;;;;;;8.57;7.90;;;;;;;-141.48;100.00;69781.59;5152245;28;20153;-56
2022/05/10 06:51:22;;;;;;;7.88;7.25;;;;;;;-141.48;100.00;69781.59;5151442;28;20074;-57
2022/05/10 06:53:54;;;;;;;7.63;7.03;;;;;;;-141.48;100.00;69781.59;5166938;28;20018;-55
2022/05/10 06:56:25;;;;;;;7.70;7.20;;;;;;;-141.48;100.00;69781.59;5150868;28;20034;-57
2022/05/10 06:58:55;;;;;;;7.72;7.13;;;;;;;-141.48;100.00;69781.59;5150304;28;20022;-55
2022/05/10 07:01:26;;;;;;;12.32;6.72;;;;;;;-141.48;100.00;69781.59;5147560;28;20272;-57
2022/05/10 07:03:56;;;;;;;7.35;6.70;;;;;;;-141.48;100.00;69781.59;5146638;28;20033;-55
2022/05/10 07:06:27;;;;;;;9.70;7.50;;;;;;;-141.48;100.00;69781.59;5164978;23;20041;-57
2022/05/10 07:08:58;;;;;;;6.40;5.90;;;;;;;-141.48;100.00;69781.59;5174763;28;20448;-58
2022/05/10 07:11:28;;;;;;;7.35;6.75;;;;;;;-141.48;100.00;69781.59;5173995;28;20040;-58
2022/05/10 07:13:59;;;;;;;6.65;6.05;;;;;;;-141.48;100.00;69781.59;5185804;28;20563;-55
2022/05/10 07:16:30;;;;;;;9.02;6.80;;;;;;;-141.48;100.00;69781.59;5170222;28;20022;-57
2022/05/10 07:19:01;;;;;;;7.38;6.97;;;;;;;-141.48;100.00;69781.59;5186498;28;20026;-57
2022/05/10 07:21:31;;;;;;;7.32;6.78;;;;;;;-141.48;100.00;69781.59;5170171;28;20026;-57
2022/05/10 07:24:02;;;;;;;8.00;6.63;;;;;;;-141.48;100.00;69781.59;5186113;28;20030;-57
2022/05/10 07:26:33;;;;;;;6.90;6.30;;;;;;;-141.48;100.00;69781.59;5184183;28;20478;-57
2022/05/10 07:29:03;;;;;;;6.43;5.28;;;;;;;-141.48;100.00;69781.59;5186642;28;20401;-55
2022/05/10 07:31:34;;;;;;;6.72;6.05;;;;;;;-141.48;100.00;69781.59;5185522;28;20461;-56
2022/05/10 07:34:05;;;;;;;9.02;6.70;;;;;;;-141.48;100.00;69781.59;5185854;28;20486;-56
2022/05/10 07:36:36;;;;;;;11.93;8.60;;;;;;;-141.48;100.00;69781.59;5169876;28;20029;-57
2022/05/10 07:39:09;;;;;;;7.82;5.57;;;;;;;-141.48;100.00;69781.59;5186314;28;20109;-56
2022/05/10 07:41:40;;;;;;;10.00;7.80;;;;;;;-141.48;100.00;69781.59;5186160;28;20029;-58
2022/05/10 07:44:11;;;;;;;6.82;5.63;;;;;;;-141.48;100.00;69781.59;5185839;28;20026;-55
2022/05/10 07:46:41;;;;;;;6.35;5.50;;;;;;;-141.48;100.00;69781.59;5186122;28;20571;-57
2022/05/10 07:49:12;;;;;;;6.15;5.82;;;;;;;-141.48;100.00;69781.59;5186041;28;20033;-56
2022/05/10 07:51:42;;;;;;;7.20;5.95;;;;;;;-141.48;100.00;69781.59;5186111;28;20184;-57
2022/05/10 07:54:13;;;;;;;13.15;6.90;;;;;;;-141.48;100.00;69781.59;5169531;28;20025;-56
2022/05/10 07:56:43;;;;;;;7.32;6.72;;;;;;;-141.48;100.00;69781.59;5169476;28;20069;-58
2022/05/10 07:59:15;;;;;;;7.57;6.80;;;;;;;-141.48;100.00;69781.59;5185788;28;20026;-58
2022/05/10 08:01:46;;;;;;;6.28;5.78;;;;;;;-141.48;100.00;69781.59;5169318;28;20044;-58
2022/05/10 08:04:16;;;;;;;5.88;5.38;;;;;;;-141.48;100.00;69781.59;5185261;28;20026;-56
2022/05/10 08:06:46;;;;;;;6.68;6.18;;;;;;;-141.48;100.00;69781.59;5169343;28;20041;-57
2022/05/10 08:09:17;;;;;;;10.55;6.55;;;;;;;-141.48;100.00;69781.59;5185368;28;20437;-57
2022/05/10 08:11:47;;;;;;;7.32;6.75;;;;;;;-141.48;100.00;69781.59;5185267;28;20022;-58
2022/05/10 08:14:18;;;;;;;7.43;6.88;;;;;;;-141.48;100.00;69781.59;5168857;28;20038;-56
2022/05/10 08:16:48;;;;;;;6.40;5.57;;;;;;;-141.48;100.00;69781.59;5185471;28;20022;-55
2022/05/10 08:19:19;;;;;;;6.85;6.20;;;;;;;-141.48;100.00;69781.59;5185098;28;20053;-58
2022/05/10 08:21:49;;;;;;;5.40;4.90;;;;;;;-141.48;100.00;69781.59;5185275;28;20482;-56
2022/05/10 08:24:20;;;;;;;5.78;5.45;;;;;;;-141.48;100.00;69781.59;5184396;28;20037;-57
2022/05/10 08:26:50;;;;;;;5.95;5.15;;;;;;;-141.48;100.00;69781.59;5168821;28;20425;-57
2022/05/10 08:29:21;;;;;;;7.65;6.80;;;;;;;-141.48;100.00;69781.59;5185510;28;20029;-57
2022/05/10 08:31:51;;;;;;;8.70;5.78;;;;;;;-141.48;100.00;69781.59;5168602;28;20025;-58
2022/05/10 08:34:22;;;;;;;5.78;5.35;;;;;;;-141.48;100.00;69781.59;5168631;28;20018;-57
2022/05/10 08:36:53;;;;;;;7.15;5.47;;;;;;;-141.48;100.00;69781.59;5185112;28;20065;-57
2022/05/10 08:39:23;;;;;;;8.27;6.68;;;;;;;-141.48;100.00;69781.59;5185068;28;20022;-54
2022/05/10 08:42:16;;;;;;;4.78;4.35;;;;;;;-141.48;100.00;69781.59;5184927;28;20080;-57
2022/05/10 08:44:54;;;;;;;7.47;5.78;;;;;;;-141.48;100.00;69781.59;5167155;28;20375;-57
2022/05/10 08:47:26;;;;;;;4.97;4.68;;;;;;;-141.48;100.00;69781.59;5168038;28;20045;-58
2022/05/10 08:50:02;;;;;;;5.05;4.75;;;;;;;-141.48;100.00;69781.59;5168585;28;20511;-58
2022/05/10 08:52:38;;;;;;;9.52;6.20;;;;;;;-141.48;100.00;69781.59;5168296;28;20115;-58
2022/05/10 08:55:10;;;;;;;6.10;5.30;;;;;;;-141.48;100.00;69781.59;5185767;28;20029;-57
2022/05/10 08:58:07;;;;;;;8.32;6.10;;;;;;;-141.48;100.00;69781.59;5168542;28;20030;-58
2022/05/10 09:00:49;;;;;;;6.15;5.80;;;;;;;-141.48;100.00;69781.59;5168557;28;20025;-58
2022/05/10 09:03:41;;;;;;;5.57;4.30;;;;;;;-141.48;100.00;69781.59;5168329;28;20026;-58
2022/05/10 09:06:36;;;;;;;7.15;5.43;;;;;;;-141.48;100.00;69781.59;5184539;28;20409;-59
2022/05/10 09:09:12;;;;;;;5.85;5.45;;;;;;;-141.48;100.00;69781.59;5184698;28;20087;-55
2022/05/10 09:11:51;;;;;;;4.95;4.55;;;;;;;-141.48;100.00;69781.59;5184352;28;20026;-56
2022/05/10 09:14:33;;;;;;;6.37;5.10;;;;;;;-141.48;100.00;69781.59;5168283;28;20032;-56
2022/05/10 09:17:04;;;;;;;4.47;4.28;;;;;;;-141.48;100.00;69781.59;5167978;28;20510;-56
2022/05/10 09:19:40;;;;;;;8.23;4.90;;;;;;;-141.48;100.00;69781.59;5168176;28;20025;-58
2022/05/10 09:22:20;;;;;;;5.32;5.03;;;;;;;-141.48;100.00;69781.59;5168093;28;20084;-58
2022/05/10 09:24:53;;;;;;;5.13;4.80;;;;;;;-141.48;100.00;69781.59;5185848;28;20444;-56
2022/05/10 09:27:34;;;;;;;5.88;4.35;;;;;;;-141.48;100.00;69781.59;5168203;28;20033;-56
2022/05/10 09:30:05;;;;;;;8.48;5.85;;;;;;;-141.48;100.00;69781.59;5167915;28;20092;-56
2022/05/10 09:35:28;;;;;;;6.18;5.60;;;;;;;-141.48;100.00;69781.59;5184268;28;20088;-54
2022/05/10 09:38:08;;;;;;;14.20;6.22;;;;;;;-141.48;100.00;69781.59;5172734;23;20042;-63
2022/05/10 09:40:42;;;;;;;5.93;5.45;;;;;;;-141.48;100.00;69781.59;5163390;28;20092;-63
2022/05/10 09:43:15;;;;;;;9.30;6.10;;;;;;;-141.48;100.00;69781.59;5163427;28;20042;-61
2022/05/10 09:46:05;;;;;;;6.85;6.28;;;;;;;-141.48;100.00;69781.59;5144504;28;20023;-64
2022/05/10 09:48:36;;;;;;;11.90;5.55;;;;;;;-141.48;100.00;69781.59;5143037;28;20026;-61
2022/05/10 09:51:41;;;;;;;6.00;5.22;;;;;;;-141.48;100.00;69781.59;5143294;28;20031;-62
2022/05/10 09:54:23;;;;;;;7.03;4.70;;;;;;;-141.48;100.00;69781.59;5116407;28;20039;-63
2022/05/10 09:56:56;;;;;;;4.65;4.30;;;;;;;-141.48;100.00;69781.59;5142977;28;20081;-64
2022/05/10 09:59:31;;;;;;;5.00;4.70;;;;;;;-141.48;100.00;69781.59;5143064;28;20395;-64
2022/05/10 10:02:01;;;;;;;7.50;4.55;;;;;;;-141.48;100.00;69781.59;5143222;28;20038;-63
2022/05/10 10:04:40;;;;;;;5.88;5.40;;;;;;;-141.48;100.00;69781.59;5127000;28;20120;-63
2022/05/10 10:07:17;;;;;;;;;;;;;;;-141.48;100.00;69781.59;5143483;28;20174;-63
2022/05/10 10:09:55;;;;;;;4.80;4.32;;;;;;;-141.48;100.00;69781.59;5143146;28;19910;-63
2022/05/10 10:12:49;;;;;;;4.05;3.65;;;;;;;-141.48;100.00;69781.59;5143329;28;20022;-62
2022/05/10 10:15:43;;;;;;;12.38;6.30;;;;;;;-141.48;100.00;69781.59;5142797;28;20050;-62
2022/05/10 10:18:44;;;;;;;6.25;5.68;;;;;;;-141.48;100.00;69781.59;5127103;28;20479;-64
2022/05/10 10:21:22;;;;;;;6.70;6.05;;;;;;;-141.48;100.00;69781.59;5143098;28;20399;-63
2022/05/10 10:23:57;;;;;;;6.38;5.78;;;;;;;-141.48;100.00;69781.59;5142766;28;20462;-63
2022/05/10 10:26:37;;;;;;;12.23;5.97;;;;;;;-141.48;100.00;69781.59;5142901;28;20442;-64
2022/05/10 10:29:22;;;;;;;8.40;5.25;;;;;;;-141.48;100.00;69781.59;5142971;28;20034;-64
2022/05/10 10:31:58;;;;;;;12.73;4.75;;;;;;;-141.48;100.00;69781.59;5142904;28;20379;-63
2022/05/10 10:34:40;;;;;;;13.68;8.05;;;;;;;-141.48;100.00;69781.59;5142637;28;20058;-63
2022/05/10 10:37:23;;;;;;;14.90;6.03;;;;;;;-141.48;100.00;69781.59;5126919;28;20035;-63
2022/05/10 10:40:15;;;;;;;9.80;6.18;;;;;;;-141.48;100.00;69781.59;5142891;28;20038;-65
2022/05/10 10:43:02;;;;;;;8.55;4.97;;;;;;;-141.48;100.00;69781.59;5142831;28;20547;-63
2022/05/10 10:45:50;;;;;;;15.15;6.05;;;;;;;-141.48;100.00;69781.59;5141086;28;20035;-63
2022/05/10 10:48:27;;;;;;;16.65;6.35;;;;;;;-141.48;100.00;69781.59;5147544;28;20022;-63
2022/05/10 10:50:58;;;;;;;6.60;6.10;;;;;;;-141.48;100.00;69781.59;5146666;28;20177;-63
2022/05/10 10:53:29;;;;;;;5.80;5.30;;;;;;;-141.48;100.00;69781.59;5146181;28;20117;-62
2022/05/10 10:56:31;;;;;;;12.70;7.25;;;;;;;-141.48;100.00;69781.59;5146608;28;20027;-62
2022/05/10 10:59:32;;;;;;;13.75;6.53;;;;;;;-141.48;100.00;69781.59;5146897;28;20085;-62
2022/05/10 11:02:17;;;;;;;5.15;4.85;;;;;;;-141.48;100.00;69781.59;5146838;28;20479;-63
2022/05/10 11:05:06;;;;;;;5.00;4.68;;;;;;;-141.48;100.00;69781.59;5145056;28;20066;-63
2022/05/10 11:07:44;;;;;;;5.18;4.70;;;;;;;-141.48;100.00;69781.59;5146402;28;20027;-63
2022/05/10 11:10:23;;;;;;;11.18;4.80;;;;;;;-141.48;100.00;69781.59;5146503;28;20121;-63
2022/05/10 11:13:09;;;;;;;5.82;4.93;;;;;;;-141.48;100.00;69781.59;5146301;28;20403;-62
2022/05/10 11:15:59;;;;;;;5.45;5.05;;;;;;;-141.48;100.00;69781.59;5114928;28;20038;-63
2022/05/10 11:18:51;;;;;;;8.45;4.50;;;;;;;-141.48;100.00;69781.59;5146322;28;20077;-62
2022/05/10 11:21:38;;;;;;;14.68;5.53;;;;;;;-141.48;100.00;69781.59;5145848;28;20030;-63
2022/05/10 11:24:25;;;;;;;5.03;4.72;;;;;;;-141.48;100.00;69781.59;5145623;28;20460;-63
2022/05/10 11:27:06;;;;;;;6.55;5.85;;;;;;;-141.48;100.00;69781.59;5145906;28;20509;-63
2022/05/10 11:29:42;;;;;;;4.97;4.57;;;;;;;-141.48;100.00;69781.59;5145707;28;20121;-63
2022/05/10 11:32:44;;;;;;;10.27;5.05;;;;;;;-141.48;100.00;69781.59;5146003;28;20051;-61
2022/05/10 11:35:19;;;;;;;7.47;5.35;;;;;;;-141.48;100.00;69781.59;5145450;28;20042;-63
2022/05/10 11:38:22;;;;;;;9.45;5.65;;;;;;;-141.48;100.00;69781.59;5145615;28;20062;-63
2022/05/10 11:41:27;;;;;;;16.30;6.57;;;;;;;-141.48;100.00;69781.59;5145686;28;20042;-63
2022/05/10 11:44:04;;;;;;;16.08;5.88;;;;;;;-141.48;100.00;69781.59;5145386;28;20089;-61
2022/05/10 11:47:00;;;;;;;9.38;5.18;;;;;;;-141.48;100.00;69781.59;5145504;28;20034;-62
2022/05/10 11:50:03;;;;;;;5.82;5.32;;;;;;;-141.48;100.00;69781.59;5145298;28;20074;-63
2022/05/10 11:52:52;;;;;;;9.73;4.75;;;;;;;-141.48;100.00;69781.59;5124046;28;20101;-63
2022/05/10 11:55:43;;;;;;;8.18;4.90;;;;;;;-141.48;100.00;69781.59;5145103;28;20022;-63
2022/05/10 11:58:15;;;;;;;14.82;5.88;;;;;;;-141.48;100.00;69781.59;5133836;28;20039;-63